Time,TemperatureF,DewpointF,PressureIn,WindDirection,WindDirectionDegrees,WindSpeedMPH,WindSpeedGustMPH,Humidity,HourlyPrecipIn,Conditions,Clouds,dailyrainin,SolarRadiationWatts/m^2,SoftwareType,DateUTC
2013-05-17 00:01:00,49.0,42.0,-100.00,SW,222,10.0,14.0,78,0.00,,,0.14,0.000000,,2013-05-17 06:01:00,
2013-05-17 00:22:00,48.0,41.0,-100.00,SW,229,8.0,13.0,76,0.00,,,0.14,0.000000,,2013-05-17 06:22:00,
2013-05-17 00:32:00,48.0,41.0,-100.00,SW,229,8.0,13.0,76,0.00,,,0.14,0.000000,,2013-05-17 06:32:00,
2013-05-17 00:42:00,48.0,41.0,-100.00,SW,229,8.0,13.0,76,0.00,,,0.14,0.000000,,2013-05-17 06:42:00,
2013-05-17 00:52:00,48.0,41.0,-100.00,SW,229,8.0,13.0,76,0.00,,,0.14,0.000000,,2013-05-17 06:52:00,
2013-05-17 01:02:00,48.0,41.0,-100.00,SW,229,8.0,13.0,76,0.00,,,0.14,0.000000,,2013-05-17 07:02:00,
2013-05-17 01:21:00,46.0,37.0,-100.00,WNW,291,5.0,13.0,71,0.00,,,0.14,0.000000,,2013-05-17 07:21:00,
2013-05-17 01:32:00,46.0,37.0,-100.00,WNW,291,5.0,13.0,71,0.00,,,0.14,0.000000,,2013-05-17 07:32:00,
2013-05-17 01:43:00,46.0,37.0,-100.00,WNW,291,5.0,13.0,71,0.00,,,0.14,0.000000,,2013-05-17 07:43:00,
2013-05-17 01:53:00,46.0,37.0,-100.00,WNW,291,5.0,13.0,71,0.00,,,0.14,0.000000,,2013-05-17 07:53:00,
2013-05-17 02:02:00,46.0,37.0,-100.00,WNW,291,5.0,13.0,71,0.00,,,0.14,0.000000,,2013-05-17 08:02:00,
2013-05-17 02:23:00,43.0,38.0,-100.00,SW,224,4.0,9.0,81,0.00,,,0.14,0.000000,,2013-05-17 08:23:00,
2013-05-17 02:34:00,43.0,38.0,-100.00,SW,224,4.0,9.0,81,0.00,,,0.14,0.000000,,2013-05-17 08:34:00,
2013-05-17 02:42:00,43.0,38.0,-100.00,SW,224,4.0,9.0,81,0.00,,,0.14,0.000000,,2013-05-17 08:42:00,
2013-05-17 02:52:00,43.0,38.0,-100.00,SW,224,4.0,9.0,81,0.00,,,0.14,0.000000,,2013-05-17 08:52:00,
2013-05-17 03:02:00,43.0,38.0,-100.00,SW,224,4.0,9.0,81,0.00,,,0.14,0.000000,,2013-05-17 09:02:00,
2013-05-17 03:03:00,44.0,39.0,-100.00,WSW,238,5.0,8.0,83,0.00,,,0.14,0.000000,,2013-05-17 09:03:00,
2013-05-17 03:23:00,44.0,39.0,-100.00,WSW,238,5.0,8.0,83,0.00,,,0.14,0.000000,,2013-05-17 09:23:00,
2013-05-17 03:33:00,44.0,39.0,-100.00,WSW,238,5.0,8.0,83,0.00,,,0.14,0.000000,,2013-05-17 09:33:00,
2013-05-17 03:42:00,44.0,39.0,-100.00,WSW,238,5.0,8.0,83,0.00,,,0.14,0.000000,,2013-05-17 09:42:00,
2013-05-17 03:53:00,44.0,39.0,-100.00,WSW,238,5.0,8.0,83,0.00,,,0.14,0.000000,,2013-05-17 09:53:00,
2013-05-17 04:23:00,43.0,37.0,-100.00,WNW,295,4.0,7.0,80,0.00,,,0.14,0.000000,,2013-05-17 10:23:00,
2013-05-17 04:33:00,43.0,37.0,-100.00,WNW,295,4.0,7.0,80,0.00,,,0.14,0.000000,,2013-05-17 10:33:00,
2013-05-17 04:42:00,43.0,37.0,-100.00,WNW,295,4.0,7.0,80,0.00,,,0.14,0.000000,,2013-05-17 10:42:00,
2013-05-17 04:54:00,43.0,37.0,-100.00,WNW,295,4.0,7.0,80,0.00,,,0.14,0.000000,,2013-05-17 10:54:00,
2013-05-17 05:02:00,43.0,37.0,-100.00,WNW,295,4.0,7.0,80,0.00,,,0.14,0.000000,,2013-05-17 11:02:00,
2013-05-17 05:34:00,42.0,39.0,-100.00,West,278,2.0,7.0,88,0.00,,,0.14,0.000000,,2013-05-17 11:34:00,
2013-05-17 05:42:00,42.0,39.0,-100.00,West,278,2.0,7.0,88,0.00,,,0.14,0.000000,,2013-05-17 11:42:00,
2013-05-17 05:53:00,42.0,39.0,-100.00,West,278,2.0,7.0,88,0.00,,,0.14,0.000000,,2013-05-17 11:53:00,
2013-05-17 06:02:00,42.0,39.0,-100.00,West,278,2.0,7.0,88,0.00,,,0.14,0.000000,,2013-05-17 12:02:00,
2013-05-17 06:03:00,41.0,38.0,-100.00,WSW,240,4.0,5.0,89,0.00,,,0.14,2.000000,,2013-05-17 12:03:00,
2013-05-17 06:33:00,41.0,38.0,-100.00,WSW,240,4.0,5.0,89,0.00,,,0.14,2.000000,,2013-05-17 12:33:00,
2013-05-17 06:43:00,41.0,38.0,-100.00,WSW,240,4.0,5.0,89,0.00,,,0.14,2.000000,,2013-05-17 12:43:00,
2013-05-17 06:53:00,41.0,38.0,-100.00,WSW,240,4.0,5.0,89,0.00,,,0.14,2.000000,,2013-05-17 12:53:00,
2013-05-17 07:33:00,43.0,39.0,-100.00,West,281,0.0,7.0,85,0.00,,,0.14,44.000000,,2013-05-17 13:33:00,
2013-05-17 07:42:00,43.0,39.0,-100.00,West,281,0.0,7.0,85,0.00,,,0.14,44.000000,,2013-05-17 13:42:00,
2013-05-17 07:52:00,43.0,39.0,-100.00,West,281,0.0,7.0,85,0.00,,,0.14,44.000000,,2013-05-17 13:52:00,
2013-05-17 08:01:00,43.0,39.0,-100.00,West,281,0.0,7.0,85,0.00,,,0.14,44.000000,,2013-05-17 14:01:00,
2013-05-17 08:03:00,47.0,41.0,-100.00,ENE,71,2.0,7.0,79,0.00,,,0.14,133.000000,,2013-05-17 14:03:00,
2013-05-17 08:34:00,47.0,41.0,-100.00,ENE,71,2.0,7.0,79,0.00,,,0.14,133.000000,,2013-05-17 14:34:00,
2013-05-17 08:43:00,47.0,41.0,-100.00,ENE,71,2.0,7.0,79,0.00,,,0.14,133.000000,,2013-05-17 14:43:00,
2013-05-17 08:53:00,47.0,41.0,-100.00,ENE,71,2.0,7.0,79,0.00,,,0.14,133.000000,,2013-05-17 14:53:00,
2013-05-17 09:03:00,50.0,42.0,-100.00,NNE,29,3.0,5.0,73,0.00,,,0.14,245.000000,,2013-05-17 15:03:00,
2013-05-17 09:25:00,50.0,42.0,-100.00,NNE,29,3.0,5.0,73,0.00,,,0.14,245.000000,,2013-05-17 15:25:00,
2013-05-17 09:37:00,50.0,42.0,-100.00,NNE,29,3.0,5.0,73,0.00,,,0.14,245.000000,,2013-05-17 15:37:00,
2013-05-17 09:47:00,50.0,42.0,-100.00,NNE,29,3.0,5.0,73,0.00,,,0.14,245.000000,,2013-05-17 15:47:00,
2013-05-17 09:57:00,50.0,42.0,-100.00,NNE,29,3.0,5.0,73,0.00,,,0.14,245.000000,,2013-05-17 15:57:00,
2013-05-17 10:03:00,50.0,41.0,-100.00,NE,43,0.0,6.0,70,0.00,,,0.14,287.000000,,2013-05-17 16:03:00,
2013-05-17 10:26:00,50.0,41.0,-100.00,NE,43,0.0,6.0,70,0.00,,,0.14,287.000000,,2013-05-17 16:26:00,
2013-05-17 10:37:00,50.0,41.0,-100.00,NE,43,0.0,6.0,70,0.00,,,0.14,287.000000,,2013-05-17 16:37:00,
2013-05-17 10:49:00,50.0,41.0,-100.00,NE,43,0.0,6.0,70,0.00,,,0.14,287.000000,,2013-05-17 16:49:00,
2013-05-17 10:56:00,50.0,41.0,-100.00,NE,43,0.0,6.0,70,0.00,,,0.14,287.000000,,2013-05-17 16:56:00,
2013-05-17 12:03:00,53.0,40.0,-100.00,NNE,27,5.0,5.0,61,-99.99,,,0.14,187.000000,,2013-05-17 18:03:00,
2013-05-17 12:30:00,53.0,40.0,-100.00,NNE,27,5.0,5.0,61,-99.99,,,0.14,187.000000,,2013-05-17 18:30:00,
2013-05-17 12:40:00,53.0,-99.9,-100.00,NNE,27,5.0,5.0,61,-99.99,,,0.14,187.000000,,2013-05-17 18:40:00,
2013-05-17 12:50:00,-999.0,-99.9,-100.00,NNE,27,5.0,5.0,61,-99.99,,,0.14,187.000000,,2013-05-17 18:50:00,
2013-05-17 13:00:00,53.0,40.0,-100.00,NNE,27,5.0,5.0,61,-99.99,,,0.14,187.000000,,2013-05-17 19:00:00,
2013-05-17 13:03:00,51.0,40.0,-100.00,North,11,5.0,8.0,65,0.00,,,0.07,210.000000,,2013-05-17 19:03:00,
2013-05-17 13:30:00,51.0,40.0,-100.00,North,11,5.0,8.0,65,0.00,,,0.07,210.000000,,2013-05-17 19:30:00,
2013-05-17 13:40:00,51.0,40.0,-100.00,North,11,5.0,8.0,65,0.00,,,0.07,210.000000,,2013-05-17 19:40:00,
2013-05-17 13:51:00,51.0,40.0,-100.00,North,11,5.0,8.0,65,0.00,,,0.07,210.000000,,2013-05-17 19:51:00,
2013-05-17 14:00:00,51.0,-99.9,-100.00,North,11,5.0,8.0,65,0.00,,,0.07,210.000000,,2013-05-17 20:00:00,
2013-05-17 14:03:00,57.0,40.0,-100.00,North,353,4.0,9.0,52,0.00,,,0.07,297.000000,,2013-05-17 20:03:00,
2013-05-17 14:40:00,57.0,40.0,-100.00,North,353,4.0,9.0,52,0.00,,,0.07,297.000000,,2013-05-17 20:40:00,
2013-05-17 14:50:00,57.0,40.0,-100.00,North,353,4.0,9.0,52,0.00,,,0.07,297.000000,,2013-05-17 20:50:00,
2013-05-17 14:58:00,57.0,40.0,-100.00,North,353,4.0,9.0,52,0.00,,,0.07,297.000000,,2013-05-17 20:58:00,
2013-05-17 15:03:00,58.0,40.0,-100.00,North,4,6.0,9.0,52,0.00,,,0.07,336.000000,,2013-05-17 21:03:00,
2013-05-17 15:26:00,58.0,40.0,-100.00,North,4,6.0,9.0,52,0.00,,,0.07,336.000000,,2013-05-17 21:26:00,
2013-05-17 15:39:00,58.0,40.0,-100.00,North,4,6.0,9.0,52,0.00,,,0.07,336.000000,,2013-05-17 21:39:00,
2013-05-17 15:49:00,58.0,40.0,-100.00,North,4,6.0,9.0,52,0.00,,,0.07,336.000000,,2013-05-17 21:49:00,
2013-05-17 15:58:00,58.0,40.0,-100.00,North,4,6.0,9.0,52,0.00,,,0.07,336.000000,,2013-05-17 21:58:00,
2013-05-17 16:03:00,55.0,38.0,-100.00,NNE,18,5.0,11.0,52,0.00,,,0.06,281.000000,,2013-05-17 22:03:00,
2013-05-17 16:28:00,55.0,38.0,-100.00,NNE,18,5.0,11.0,52,0.00,,,0.06,281.000000,,2013-05-17 22:28:00,
2013-05-17 16:38:00,55.0,38.0,-100.00,NNE,18,5.0,11.0,52,0.00,,,0.06,281.000000,,2013-05-17 22:38:00,
2013-05-17 16:47:00,55.0,38.0,-100.00,NNE,18,5.0,11.0,52,0.00,,,0.06,281.000000,,2013-05-17 22:47:00,
2013-05-17 16:55:00,55.0,38.0,-100.00,NNE,18,5.0,11.0,52,0.00,,,0.06,281.000000,,2013-05-17 22:55:00,
2013-05-17 17:23:00,53.0,40.0,-100.00,North,356,1.0,9.0,61,0.00,,,0.06,140.000000,,2013-05-17 23:23:00,
2013-05-17 17:38:00,53.0,40.0,-100.00,North,356,1.0,9.0,61,0.00,,,0.06,140.000000,,2013-05-17 23:38:00,
2013-05-17 17:47:00,53.0,40.0,-100.00,North,356,1.0,9.0,61,0.00,,,0.06,140.000000,,2013-05-17 23:47:00,
2013-05-17 17:54:00,53.0,40.0,-100.00,North,356,1.0,9.0,61,0.00,,,0.06,140.000000,,2013-05-17 23:54:00,
2013-05-17 18:02:00,53.0,40.0,-100.00,North,356,1.0,9.0,61,0.00,,,0.06,140.000000,,2013-05-18 00:02:00,
2013-05-17 18:22:00,51.0,44.0,-100.00,East,93,2.0,8.0,76,0.01,,,0.06,69.000000,,2013-05-18 00:22:00,
2013-05-17 18:34:00,51.0,44.0,-100.00,East,93,2.0,8.0,76,0.01,,,0.06,69.000000,,2013-05-18 00:34:00,
2013-05-17 18:45:00,51.0,44.0,-100.00,East,93,2.0,8.0,76,0.01,,,0.06,69.000000,,2013-05-18 00:45:00,
2013-05-17 18:54:00,51.0,44.0,-100.00,East,93,2.0,8.0,76,0.01,,,0.06,69.000000,,2013-05-18 00:54:00,
2013-05-17 19:02:00,51.0,44.0,-100.00,East,93,2.0,8.0,76,0.01,,,0.06,69.000000,,2013-05-18 01:02:00,
2013-05-17 19:24:00,50.0,44.0,-100.00,SSE,163,3.0,4.0,81,0.05,,,0.08,32.000000,,2013-05-18 01:24:00,
2013-05-17 19:32:00,50.0,44.0,-100.00,SSE,163,3.0,4.0,81,0.05,,,0.08,32.000000,,2013-05-18 01:32:00,
2013-05-17 19:43:00,50.0,44.0,-100.00,SSE,163,3.0,4.0,81,0.05,,,0.08,32.000000,,2013-05-18 01:43:00,
2013-05-17 19:52:00,50.0,44.0,-100.00,SSE,163,3.0,4.0,81,0.05,,,0.08,32.000000,,2013-05-18 01:52:00,
2013-05-17 20:02:00,50.0,44.0,-100.00,SSE,163,3.0,4.0,81,0.05,,,0.08,32.000000,,2013-05-18 02:02:00,
2013-05-17 20:32:00,48.0,46.0,-100.00,WSW,257,0.0,8.0,93,0.03,,,0.09,14.000000,,2013-05-18 02:32:00,
2013-05-17 20:43:00,48.0,46.0,-100.00,WSW,257,0.0,8.0,93,0.03,,,0.09,14.000000,,2013-05-18 02:43:00,
2013-05-17 20:53:00,48.0,46.0,-100.00,WSW,257,0.0,8.0,93,0.03,,,0.09,14.000000,,2013-05-18 02:53:00,
2013-05-17 21:02:00,48.0,46.0,-100.00,WSW,257,0.0,8.0,93,0.03,,,0.09,14.000000,,2013-05-18 03:02:00,
2013-05-17 21:33:00,49.0,46.0,-100.00,SE,132,4.0,5.0,91,0.07,,,0.16,2.000000,,2013-05-18 03:33:00,
2013-05-17 21:43:00,49.0,46.0,-100.00,SE,132,4.0,5.0,91,0.07,,,0.16,2.000000,,2013-05-18 03:43:00,
2013-05-17 21:53:00,49.0,46.0,-100.00,SE,132,4.0,5.0,91,0.07,,,0.16,2.000000,,2013-05-18 03:53:00,
2013-05-17 22:02:00,49.0,46.0,-100.00,SE,132,4.0,5.0,91,0.07,,,0.16,2.000000,,2013-05-18 04:02:00,
2013-05-17 22:33:00,47.0,47.0,-100.00,ESE,108,0.0,7.0,100,0.01,,,0.17,0.000000,,2013-05-18 04:33:00,
2013-05-17 22:43:00,47.0,47.0,-100.00,ESE,108,0.0,7.0,100,0.01,,,0.17,0.000000,,2013-05-18 04:43:00,
2013-05-17 22:52:00,47.0,47.0,-100.00,ESE,108,0.0,7.0,100,0.01,,,0.17,0.000000,,2013-05-18 04:52:00,
2013-05-17 23:02:00,47.0,47.0,-100.00,ESE,108,0.0,7.0,100,0.01,,,0.17,0.000000,,2013-05-18 05:02:00,
2013-05-17 23:22:00,47.0,47.0,-100.00,East,87,1.0,4.0,100,0.01,,,0.18,0.000000,,2013-05-18 05:22:00,
2013-05-17 23:32:00,47.0,47.0,-100.00,East,87,1.0,4.0,100,0.01,,,0.18,0.000000,,2013-05-18 05:32:00,
2013-05-17 23:42:00,47.0,47.0,-100.00,East,87,1.0,4.0,100,0.01,,,0.18,0.000000,,2013-05-18 05:42:00,
2013-05-17 23:52:00,47.0,47.0,-100.00,East,87,1.0,4.0,100,0.01,,,0.18,0.000000,,2013-05-18 05:52:00,